Time;durP1;ratioP1;P1;durP2;ratioP2;P2;SDS_P1;SDS_P2;PMS_P1;PMS_P2;Temp;Humidity;BMP_temperature;BMP_pressure;BME280_temperature;BME280_humidity;BME280_pressure;Samples;Min_cycle;Max_cycle;Signal;HPM_P1;HPM_P2
2021/06/11 00:00:00;;;;;;;7.53;4.40;;;;;;;16.65;65.88;101868.22;5039685;28;20090;-46
2021/06/11 00:02:26;;;;;;;5.82;4.45;;;;;;;16.58;65.82;101871.16;5042366;28;20506;-47
2021/06/11 00:04:51;;;;;;;7.53;4.57;;;;;;;16.47;65.99;101865.94;5039664;28;20074;-47
2021/06/11 00:07:17;;;;;;;6.65;4.75;;;;;;;16.39;66.07;101864.53;5036776;28;20029;-46
2021/06/11 00:09:43;;;;;;;7.88;4.55;;;;;;;16.32;66.19;101864.75;5037045;28;20056;-46
2021/06/11 00:12:09;;;;;;;15.38;5.43;;;;;;;16.28;66.46;101857.41;5036089;28;20395;-47
2021/06/11 00:14:34;;;;;;;20.33;5.25;;;;;;;16.20;66.90;101866.03;5035157;28;20032;-47
2021/06/11 00:17:00;;;;;;;13.73;4.88;;;;;;;16.09;67.28;101872.41;5038374;28;20319;-46
2021/06/11 00:19:25;;;;;;;10.00;4.93;;;;;;;15.99;67.41;101865.84;5038675;28;20029;-49
2021/06/11 00:21:51;;;;;;;5.20;4.50;;;;;;;15.90;67.73;101864.69;5036985;28;20017;-46
2021/06/11 00:24:16;;;;;;;8.40;5.22;;;;;;;15.85;67.89;101867.34;5037527;28;20486;-46
2021/06/11 00:26:42;;;;;;;6.38;4.32;;;;;;;15.80;68.21;101870.00;5037570;28;20120;-48
2021/06/11 00:29:07;;;;;;;5.10;4.60;;;;;;;15.74;68.25;101862.91;5037103;28;20390;-46
2021/06/11 00:31:33;;;;;;;5.90;4.30;;;;;;;15.71;68.30;101869.63;5037848;28;20036;-45
2021/06/11 00:33:58;;;;;;;5.78;5.18;;;;;;;15.69;68.47;101868.25;5039028;28;20033;-46
2021/06/11 00:36:24;;;;;;;8.73;4.80;;;;;;;15.68;68.85;101864.75;5037921;28;20490;-47
2021/06/11 00:38:49;;;;;;;8.40;4.70;;;;;;;15.75;68.60;101864.53;5038195;28;20033;-46
2021/06/11 00:41:15;;;;;;;5.15;4.47;;;;;;;15.78;68.45;101868.59;5034311;28;20028;-46
2021/06/11 00:43:40;;;;;;;6.60;4.93;;;;;;;15.80;68.04;101870.00;5036547;28;20101;-46
2021/06/11 00:46:06;;;;;;;6.47;4.65;;;;;;;15.79;68.08;101871.03;5038921;28;20054;-46
2021/06/11 00:48:31;;;;;;;8.80;5.03;;;;;;;15.74;68.23;101872.88;5039674;28;20024;-45
2021/06/11 00:50:57;;;;;;;7.07;4.63;;;;;;;15.72;68.30;101870.44;5039452;28;20057;-48
2021/06/11 00:53:22;;;;;;;5.28;4.75;;;;;;;15.71;68.35;101876.91;5035806;28;20028;-46
2021/06/11 00:55:49;;;;;;;6.90;4.97;;;;;;;15.68;68.72;101880.13;5041168;28;20064;-48
2021/06/11 00:58:16;;;;;;;5.47;4.78;;;;;;;15.65;69.01;101876.06;5038293;28;20514;-46
2021/06/11 01:00:42;;;;;;;5.55;5.00;;;;;;;15.63;69.04;101882.78;5036368;28;20038;-47
2021/06/11 01:03:08;;;;;;;7.05;5.07;;;;;;;15.62;69.19;101875.75;5042191;28;20025;-46
2021/06/11 01:05:34;;;;;;;5.90;5.30;;;;;;;15.61;69.30;101869.50;5034684;28;20379;-46
2021/06/11 01:08:01;;;;;;;7.20;5.88;;;;;;;15.61;69.52;101880.31;5036945;28;20119;-47
2021/06/11 01:10:27;;;;;;;7.57;5.97;;;;;;;15.63;69.62;101880.09;5037989;28;20549;-48
2021/06/11 01:12:55;;;;;;;6.90;5.63;;;;;;;15.64;69.76;101874.44;5036886;28;20112;-47
2021/06/11 01:15:22;;;;;;;8.38;5.50;;;;;;;15.66;69.76;101877.69;5038207;28;20094;-47
2021/06/11 01:17:49;;;;;;;9.52;5.75;;;;;;;15.67;69.95;101878.50;5037809;28;20048;-47
2021/06/11 01:20:15;;;;;;;6.38;5.35;;;;;;;15.67;69.88;101878.50;5038929;28;20051;-47
2021/06/11 01:23:04;;;;;;;21.92;6.18;;;;;;;15.60;70.11;101861.66;5036243;28;20040;-49
2021/06/11 01:25:52;;;;;;;19.73;5.55;;;;;;;15.61;70.23;101857.88;5037279;28;20029;-49
2021/06/11 01:28:19;;;;;;;36.95;6.80;;;;;;;15.64;70.04;101862.81;5037516;28;20055;-47
2021/06/11 01:30:45;;;;;;;25.45;6.43;;;;;;;15.63;70.19;101866.59;5036749;28;20025;-46
2021/06/11 01:33:13;;;;;;;11.45;5.97;;;;;;;15.62;70.27;101875.75;5037393;28;20399;-46
2021/06/11 01:35:47;;;;;;;8.88;5.75;;;;;;;15.59;70.38;101881.66;5039312;28;20036;-49
2021/06/11 01:38:19;;;;;;;8.75;5.95;;;;;;;15.57;70.48;101873.75;5035019;28;21915;-47
2021/06/11 01:40:47;;;;;;;8.50;5.90;;;;;;;15.56;70.67;101877.53;5036074;28;20276;-46
2021/06/11 01:43:13;;;;;;;7.50;5.40;;;;;;;15.55;70.52;101880.50;5037516;28;20063;-46
2021/06/11 01:45:39;;;;;;;6.53;5.15;;;;;;;15.53;70.73;101877.25;5038955;28;20025;-46
2021/06/11 01:48:05;;;;;;;7.55;6.28;;;;;;;15.50;70.89;101870.47;5037200;28;20025;-47
2021/06/11 01:50:34;;;;;;;8.00;5.93;;;;;;;15.47;71.15;101872.84;5037322;28;20036;-47
2021/06/11 01:53:01;;;;;;;7.97;6.05;;;;;;;15.44;71.38;101874.19;5038148;28;20052;-47
2021/06/11 01:55:31;;;;;;;6.07;5.45;;;;;;;15.39;71.43;101872.22;5037962;28;20103;-46
2021/06/11 01:57:59;;;;;;;8.15;5.45;;;;;;;15.35;71.64;101867.59;5037463;28;20086;-48
2021/06/11 02:00:25;;;;;;;6.40;5.20;;;;;;;15.32;71.58;101870.78;5036463;28;20071;-47
2021/06/11 02:02:52;;;;;;;5.60;5.10;;;;;;;15.27;71.76;101873.44;5038688;28;20372;-47
2021/06/11 02:05:18;;;;;;;6.60;5.70;;;;;;;15.22;71.99;101867.97;5039875;28;20114;-46
2021/06/11 02:07:46;;;;;;;7.43;6.60;;;;;;;15.19;72.36;101863.06;5042427;28;20028;-47
2021/06/11 02:10:12;;;;;;;12.18;6.95;;;;;;;15.16;72.53;101867.09;5042185;28;20500;-46
2021/06/11 02:12:39;;;;;;;20.33;7.32;;;;;;;15.12;72.89;101865.97;5039968;28;20016;-48
2021/06/11 02:15:09;;;;;;;17.30;6.90;;;;;;;15.14;73.01;101868.41;5041324;28;20052;-46
2021/06/11 02:17:43;;;;;;;17.83;7.60;;;;;;;15.11;73.21;101861.63;5046841;22;20396;-88
2021/06/11 02:20:15;;;;;;;10.90;7.32;;;;;;;15.15;73.26;101864.66;5018954;28;20029;-87
2021/06/11 02:22:43;;;;;;;7.57;6.47;;;;;;;15.13;73.25;101864.09;5027509;28;20115;-87
2021/06/11 02:25:10;;;;;;;6.50;5.82;;;;;;;15.14;73.11;101868.41;5014283;28;20057;-87
2021/06/11 02:27:37;;;;;;;9.40;6.30;;;;;;;15.13;72.89;101873.00;5023956;28;20386;-87
2021/06/11 02:30:16;;;;;;;10.05;6.88;;;;;;;15.12;73.01;101871.38;5050295;28;20148;-86
2021/06/11 02:32:42;;;;;;;9.27;6.90;;;;;;;15.18;72.93;101864.94;5024690;28;20121;-87
2021/06/11 02:35:12;;;;;;;7.68;6.53;;;;;;;15.20;72.58;101865.50;5034860;28;20193;-87
2021/06/11 02:37:38;;;;;;;6.47;5.68;;;;;;;15.22;72.58;101870.66;5035988;28;20020;-87
2021/06/11 02:40:06;;;;;;;7.45;6.53;;;;;;;15.24;72.43;101863.94;5037477;28;20503;-87
2021/06/11 02:42:32;;;;;;;10.13;6.60;;;;;;;15.22;72.58;101866.06;5032314;28;20120;-87
2021/06/11 02:45:03;;;;;;;8.95;6.13;;;;;;;15.20;72.74;101870.91;5033576;28;20047;-87
2021/06/11 02:48:05;;;;;;;8.20;6.72;;;;;;;15.14;73.22;101861.13;5049914;28;20022;-87
2021/06/11 02:50:35;;;;;;;6.32;5.50;;;;;;;15.17;72.86;101870.59;5027271;28;20502;-87
2021/06/11 02:53:02;;;;;;;6.20;5.60;;;;;;;15.14;72.92;101869.22;5030442;28;20032;-87
2021/06/11 02:55:29;;;;;;;6.82;5.82;;;;;;;15.11;73.08;101859.75;5029802;28;20109;-87
2021/06/11 02:58:03;;;;;;;7.00;6.10;;;;;;;15.09;73.25;101869.19;5049416;28;20479;-87
2021/06/11 03:00:30;;;;;;;6.20;5.60;;;;;;;15.08;73.39;101870.22;5025547;28;20091;-87
2021/06/11 03:03:20;;;;;;;8.70;6.18;;;;;;;15.02;73.46;101863.94;5034012;28;20028;-87
2021/06/11 03:05:52;;;;;;;7.20;6.50;;;;;;;15.06;73.47;101872.34;5042054;28;20075;-88
2021/06/11 03:08:22;;;;;;;12.32;7.60;;;;;;;15.07;73.70;101868.59;5031242;28;20086;-87
2021/06/11 03:10:52;;;;;;;9.70;7.63;;;;;;;15.06;73.68;101873.16;5049391;28;20507;-87
2021/06/11 03:13:18;;;;;;;11.20;7.57;;;;;;;15.08;73.64;101881.00;5029988;28;20108;-87
2021/06/11 03:15:45;;;;;;;9.68;7.80;;;;;;;15.12;73.71;101874.06;5044987;28;20532;-87
2021/06/11 03:18:25;;;;;;;9.90;7.60;;;;;;;15.11;74.05;101878.66;5035717;28;20025;-87
2021/06/11 03:20:52;;;;;;;7.90;7.05;;;;;;;15.19;73.87;101881.97;5034450;28;20032;-87
2021/06/11 03:23:27;;;;;;;9.88;7.63;;;;;;;15.24;73.69;101882.84;5034022;28;20028;-87
2021/06/11 03:26:02;;;;;;;8.65;6.90;;;;;;;15.25;73.81;101883.66;5049947;28;20029;-86
2021/06/11 03:28:43;;;;;;;17.88;7.60;;;;;;;15.28;73.59;101881.28;5051036;28;20032;-87
2021/06/11 03:31:14;;;;;;;8.75;6.65;;;;;;;15.35;73.36;101876.50;5049153;28;20029;-87
2021/06/11 03:33:43;;;;;;;8.98;7.35;;;;;;;15.36;73.46;101883.53;5046655;28;20028;-87
2021/06/11 03:36:16;;;;;;;9.25;7.40;;;;;;;15.35;73.41;101878.38;5044444;28;20020;-86
2021/06/11 03:38:45;;;;;;;9.85;7.60;;;;;;;15.36;73.59;101882.72;5029665;28;20581;-87
2021/06/11 03:41:13;;;;;;;11.05;6.72;;;;;;;15.39;73.82;101882.22;5034826;28;20033;-86
2021/06/11 03:43:39;;;;;;;11.80;7.82;;;;;;;15.39;73.81;101880.31;5034500;28;20031;-86
2021/06/11 03:46:06;;;;;;;10.32;8.85;;;;;;;15.45;73.52;101883.91;5037451;28;20946;-86
2021/06/11 03:48:35;;;;;;;10.63;7.47;;;;;;;15.50;73.44;101883.16;5028312;28;20033;-87
2021/06/11 03:51:01;;;;;;;13.75;8.85;;;;;;;15.55;73.33;101897.53;5036971;28;20022;-87
2021/06/11 03:53:29;;;;;;;10.38;8.95;;;;;;;15.64;73.05;101890.66;5030019;28;20028;-87
2021/06/11 03:56:00;;;;;;;10.60;8.63;;;;;;;15.83;72.66;101893.81;5028807;28;20032;-86
2021/06/11 03:58:30;;;;;;;11.18;9.07;;;;;;;16.02;72.01;101888.84;5047368;28;20029;-87
2021/06/11 04:00:58;;;;;;;10.60;9.27;;;;;;;16.23;71.48;101895.25;5040554;28;20120;-86
2021/06/11 04:03:24;;;;;;;12.02;8.85;;;;;;;16.37;70.83;101882.94;5028805;28;20027;-87
2021/06/11 04:06:03;;;;;;;10.73;9.00;;;;;;;16.36;70.83;101888.59;5033782;28;20025;-87
2021/06/11 04:08:33;;;;;;;14.40;10.65;;;;;;;16.32;71.17;101882.88;5028810;28;20058;-87
2021/06/11 04:11:00;;;;;;;11.95;9.27;;;;;;;16.27;71.38;101883.66;5046145;22;20048;-51
2021/06/11 04:13:40;;;;;;;11.27;9.60;;;;;;;16.24;71.75;101892.28;5060292;28;20082;-49
2021/06/11 04:16:22;;;;;;;14.23;9.30;;;;;;;16.17;72.12;101888.19;5057706;28;20312;-50
2021/06/11 04:18:49;;;;;;;12.27;8.93;;;;;;;16.15;72.42;101888.41;5062109;28;20263;-47
2021/06/11 04:21:25;;;;;;;12.25;9.40;;;;;;;16.08;73.11;101890.53;5061071;28;20077;-49
2021/06/11 04:23:56;;;;;;;16.70;11.73;;;;;;;16.11;72.92;101886.47;5052956;28;20025;-47
2021/06/11 04:26:25;;;;;;;15.20;11.88;;;;;;;16.08;73.03;101885.13;5034491;22;20072;-74
2021/06/11 04:28:54;;;;;;;13.95;12.05;;;;;;;16.10;73.16;101880.25;5029821;28;20120;-75
2021/06/11 04:31:20;;;;;;;18.52;13.55;;;;;;;16.11;73.02;101881.06;5018902;28;20074;-75
2021/06/11 04:33:46;;;;;;;17.77;14.63;;;;;;;16.11;72.90;101879.19;5019227;28;20488;-75
2021/06/11 04:36:11;;;;;;;17.63;14.80;;;;;;;16.09;73.04;101878.63;5018007;28;20026;-75
2021/06/11 04:38:56;;;;;;;15.13;13.45;;;;;;;16.10;73.03;101882.16;5015910;28;20057;-75
2021/06/11 04:41:27;;;;;;;17.88;14.32;;;;;;;16.14;72.79;101873.25;5017923;28;20852;-74
2021/06/11 04:43:56;;;;;;;21.17;12.95;;;;;;;16.18;73.07;101873.59;5024220;28;20023;-74
2021/06/11 04:46:22;;;;;;;17.02;11.77;;;;;;;16.22;73.13;101880.09;5018427;28;20037;-75
2021/06/11 04:48:47;;;;;;;13.50;10.10;;;;;;;16.23;73.35;101877.13;5015868;28;20026;-75
2021/06/11 04:51:13;;;;;;;10.18;8.82;;;;;;;16.28;73.39;101879.88;5020829;28;20029;-75
2021/06/11 04:53:39;;;;;;;10.27;8.85;;;;;;;16.33;73.73;101873.69;5011932;28;20026;-75
2021/06/11 04:56:07;;;;;;;15.63;9.70;;;;;;;16.39;73.76;101869.94;5019520;28;20025;-75
2021/06/11 04:58:35;;;;;;;11.63;10.10;;;;;;;16.45;73.74;101878.91;5017216;28;20022;-76
2021/06/11 05:01:00;;;;;;;14.10;12.27;;;;;;;16.51;73.83;101877.88;5021708;28;20041;-76
2021/06/11 05:03:26;;;;;;;15.25;12.27;;;;;;;16.59;73.43;101871.97;5009853;28;20018;-76
2021/06/11 05:05:52;;;;;;;17.30;13.90;;;;;;;16.72;73.00;101871.56;5010393;28;20035;-72
2021/06/11 05:08:17;;;;;;;20.55;13.98;;;;;;;16.86;72.62;101874.59;5010292;28;20025;-73
2021/06/11 05:14:10;;;;;;;15.52;12.07;;;;;;;17.54;70.56;101864.56;5034788;28;20583;-48
2021/06/11 05:16:36;;;;;;;16.27;11.95;;;;;;;17.90;69.72;101862.78;5042734;28;20044;-47
2021/06/11 05:19:03;;;;;;;18.17;11.75;;;;;;;18.09;68.88;101868.47;5040071;28;20074;-49
2021/06/11 05:21:29;;;;;;;14.18;12.10;;;;;;;18.24;68.22;101873.09;5038003;28;20028;-47
2021/06/11 05:23:54;;;;;;;15.65;11.02;;;;;;;18.41;67.59;101858.16;5040572;28;20020;-47
2021/06/11 05:26:19;;;;;;;13.18;10.77;;;;;;;18.51;67.14;101862.75;5053769;22;20034;-83
2021/06/11 05:28:45;;;;;;;14.27;10.15;;;;;;;18.73;66.76;101864.38;5032927;28;20026;-85
2021/06/11 05:31:10;;;;;;;15.27;11.35;;;;;;;18.71;66.65;101868.19;5031704;28;20020;-84
2021/06/11 05:33:36;;;;;;;15.38;10.13;;;;;;;18.73;66.46;101865.19;5022147;28;20057;-84
2021/06/11 05:36:02;;;;;;;11.52;9.15;;;;;;;18.71;66.05;101867.38;5023432;28;20028;-85
2021/06/11 05:38:27;;;;;;;10.82;9.40;;;;;;;18.83;65.48;101870.56;5031103;28;20534;-83
2021/06/11 05:40:54;;;;;;;10.63;9.52;;;;;;;19.01;65.32;101869.16;5019177;28;20034;-84
2021/06/11 05:43:20;;;;;;;11.85;10.60;;;;;;;19.11;65.13;101857.44;5010613;28;20029;-84
2021/06/11 05:45:45;;;;;;;12.70;9.70;;;;;;;19.30;64.87;101869.31;5013514;28;20580;-84
2021/06/11 05:48:11;;;;;;;12.13;9.93;;;;;;;19.55;64.21;101869.19;5008556;28;20040;-83
2021/06/11 05:50:37;;;;;;;13.27;10.48;;;;;;;19.85;63.10;101876.34;4997583;28;20026;-85
2021/06/11 05:53:02;;;;;;;13.25;9.93;;;;;;;20.17;62.34;101867.69;5011002;28;20017;-85
2021/06/11 05:55:28;;;;;;;8.82;7.93;;;;;;;20.27;61.40;101866.75;5000903;28;20128;-84
2021/06/11 05:57:54;;;;;;;8.50;7.53;;;;;;;20.28;58.49;101868.38;5036049;28;20021;-84
2021/06/11 06:00:20;;;;;;;9.88;7.00;;;;;;;20.45;60.09;101867.97;5019041;28;20030;-84
2021/06/11 06:02:46;;;;;;;7.93;6.50;;;;;;;20.70;59.56;101859.56;5018690;28;20021;-84
2021/06/11 06:05:12;;;;;;;8.23;6.22;;;;;;;20.91;59.12;101853.88;5024421;28;20032;-83
2021/06/11 06:07:38;;;;;;;10.45;6.32;;;;;;;21.12;58.12;101856.06;5041002;28;20493;-84
2021/06/11 06:10:05;;;;;;;8.52;6.22;;;;;;;21.30;57.39;101857.22;5005302;28;20041;-85
2021/06/11 06:12:30;;;;;;;7.32;6.60;;;;;;;21.47;56.71;101854.00;5006735;28;20417;-84
2021/06/11 06:14:57;;;;;;;7.97;6.65;;;;;;;21.49;56.33;101848.25;5025918;28;20025;-85
2021/06/11 06:17:23;;;;;;;7.75;6.05;;;;;;;21.67;56.83;101853.69;5015379;28;20029;-85
2021/06/11 06:19:49;;;;;;;7.05;5.80;;;;;;;21.90;56.22;101854.72;5022871;28;20112;-84
2021/06/11 06:22:14;;;;;;;8.02;6.40;;;;;;;22.04;55.21;101843.84;5029713;28;20060;-85
2021/06/11 06:24:40;;;;;;;8.82;6.93;;;;;;;22.07;55.23;101851.44;5016791;28;20034;-85
2021/06/11 06:27:06;;;;;;;7.63;6.68;;;;;;;22.11;54.51;101846.22;5013967;28;20022;-85
2021/06/11 06:29:31;;;;;;;8.88;6.53;;;;;;;21.90;53.89;101852.00;5014170;28;20089;-85
2021/06/11 06:31:57;;;;;;;11.25;6.65;;;;;;;22.05;53.92;101847.41;5017705;28;20033;-86
2021/06/11 06:34:22;;;;;;;5.65;5.13;;;;;;;22.23;53.45;101844.63;5041136;28;20080;-84
2021/06/11 06:36:48;;;;;;;8.27;5.00;;;;;;;22.40;54.34;101844.06;5013607;28;20029;-84
2021/06/11 06:39:13;;;;;;;6.13;4.68;;;;;;;22.56;52.66;101844.56;5017130;28;20692;-85
2021/06/11 06:41:39;;;;;;;6.18;4.60;;;;;;;22.78;52.37;101844.69;5009489;28;20034;-84
2021/06/11 06:44:05;;;;;;;7.93;4.40;;;;;;;22.88;50.88;101846.44;5018598;28;20029;-85
2021/06/11 06:46:33;;;;;;;7.25;4.57;;;;;;;23.08;50.79;101840.56;5004263;28;20630;-85
2021/06/11 06:49:00;;;;;;;4.75;3.80;;;;;;;23.35;49.87;101838.91;5015781;28;20025;-85
2021/06/11 06:51:26;;;;;;;7.05;4.53;;;;;;;23.48;49.76;101835.28;5034975;28;20106;-84
2021/06/11 06:53:54;;;;;;;3.78;3.20;;;;;;;23.19;46.07;101838.41;5011330;28;20054;-85
2021/06/11 06:56:23;;;;;;;5.20;3.22;;;;;;;23.07;46.56;101833.47;5004043;28;20398;-86
2021/06/11 06:58:49;;;;;;;3.88;3.30;;;;;;;22.94;46.50;101837.03;5011357;28;20115;-84
2021/06/11 07:01:14;;;;;;;3.78;3.15;;;;;;;23.24;46.62;101832.84;5011315;28;20121;-85
2021/06/11 07:03:40;;;;;;;7.18;3.40;;;;;;;23.30;45.22;101830.78;5004627;28;20040;-84
2021/06/11 07:06:05;;;;;;;5.05;3.28;;;;;;;23.47;45.32;101837.22;5007379;28;20021;-85
2021/06/11 07:08:31;;;;;;;5.40;4.00;;;;;;;23.64;46.03;101830.31;5012302;28;20021;-84
2021/06/11 07:11:01;;;;;;;4.05;3.67;;;;;;;23.86;46.57;101838.53;5019726;28;20041;-85
2021/06/11 07:13:31;;;;;;;6.95;3.60;;;;;;;24.09;46.40;101831.94;5029477;28;20028;-84
2021/06/11 07:15:57;;;;;;;7.60;3.45;;;;;;;24.33;46.00;101836.28;5026912;28;20030;-86
2021/06/11 07:18:22;;;;;;;5.97;4.05;;;;;;;24.59;45.59;101839.13;5013725;28;20973;-84
2021/06/11 07:20:48;;;;;;;3.72;3.35;;;;;;;24.68;45.43;101831.75;5036199;28;20548;-84
2021/06/11 07:23:14;;;;;;;6.05;3.35;;;;;;;24.84;44.36;101826.66;5019164;28;20036;-86
2021/06/11 07:25:40;;;;;;;5.63;3.83;;;;;;;24.73;45.12;101833.53;5013230;28;20164;-84
2021/06/11 07:28:06;;;;;;;5.00;3.10;;;;;;;24.84;44.52;101830.19;5029672;28;20070;-88
2021/06/11 07:30:31;;;;;;;4.32;3.40;;;;;;;24.99;44.00;101834.41;5038142;28;20109;-87
2021/06/11 07:32:57;;;;;;;6.85;3.40;;;;;;;25.14;43.69;101834.00;5013381;28;20029;-84
2021/06/11 07:35:23;;;;;;;4.90;3.72;;;;;;;25.40;43.55;101830.47;5027116;28;20103;-85
2021/06/11 07:37:49;;;;;;;4.60;3.47;;;;;;;25.59;43.32;101836.44;5006798;28;20026;-85
2021/06/11 07:40:15;;;;;;;5.45;3.10;;;;;;;25.72;43.57;101840.19;5009963;28;22159;-85
2021/06/11 07:42:44;;;;;;;5.20;2.95;;;;;;;25.67;43.06;101834.81;5010599;28;20025;-86
2021/06/11 07:45:10;;;;;;;4.25;3.00;;;;;;;25.28;42.10;101836.59;5005259;28;20041;-84
2021/06/11 07:47:36;;;;;;;4.97;3.10;;;;;;;25.38;42.22;101841.78;5015111;28;20022;-84
2021/06/11 07:50:09;;;;;;;4.05;2.90;;;;;;;25.52;41.81;101828.72;5005315;28;20032;-84
2021/06/11 07:52:37;;;;;;;4.60;3.42;;;;;;;25.65;41.76;101834.34;4996783;28;20034;-84
2021/06/11 07:55:08;;;;;;;5.45;2.80;;;;;;;25.90;42.42;101831.59;5012508;28;20029;-83
2021/06/11 07:57:34;;;;;;;4.55;2.78;;;;;;;26.22;41.49;101836.88;5025076;28;20483;-83
2021/06/11 07:59:59;;;;;;;4.68;2.78;;;;;;;26.31;42.28;101838.44;5016516;28;20033;-85
2021/06/11 08:02:25;;;;;;;4.45;2.88;;;;;;;26.19;42.23;101830.88;5015478;28;20035;-84
2021/06/11 08:04:53;;;;;;;5.10;2.78;;;;;;;26.03;40.80;101846.28;5010926;28;20029;-85
2021/06/11 08:07:25;;;;;;;4.10;2.78;;;;;;;26.27;41.75;101837.50;5011239;28;20075;-84
2021/06/11 08:09:54;;;;;;;2.72;2.38;;;;;;;26.39;42.21;101831.31;5008111;28;20033;-84
2021/06/11 08:12:20;;;;;;;5.05;2.75;;;;;;;26.35;41.97;101831.19;5005966;28;20493;-84
2021/06/11 08:14:48;;;;;;;4.57;3.10;;;;;;;26.31;40.97;101835.69;5014654;28;20108;-84
2021/06/11 08:17:14;;;;;;;3.88;2.88;;;;;;;26.37;41.23;101836.34;5004895;28;20024;-85
2021/06/11 08:19:42;;;;;;;3.67;2.70;;;;;;;25.61;39.51;101834.97;5022799;28;20029;-84
2021/06/11 08:22:07;;;;;;;5.50;2.75;;;;;;;25.68;41.24;101831.00;5007784;28;20092;-84
2021/06/11 08:24:33;;;;;;;4.18;2.83;;;;;;;25.71;40.96;101831.16;5005779;28;20518;-84
2021/06/11 08:27:01;;;;;;;5.47;2.85;;;;;;;25.41;41.68;101832.88;5027608;28;20053;-85
2021/06/11 08:29:27;;;;;;;2.95;2.75;;;;;;;25.42;42.40;101829.00;5029878;28;20026;-84
2021/06/11 08:31:53;;;;;;;3.40;2.70;;;;;;;25.14;42.81;101827.72;5017312;28;20025;-85
2021/06/11 08:34:22;;;;;;;5.05;3.00;;;;;;;25.59;42.65;101820.78;5018380;28;20051;-87
2021/06/11 08:36:47;;;;;;;3.83;2.80;;;;;;;25.97;42.30;101827.56;5011711;28;20093;-86
2021/06/11 08:39:14;;;;;;;3.53;2.97;;;;;;;26.27;41.76;101825.69;5020079;28;20800;-88
2021/06/11 08:41:39;;;;;;;4.35;3.33;;;;;;;26.39;41.10;101831.31;5015187;28;20025;-87
2021/06/11 08:44:22;;;;;;;4.65;3.20;;;;;;;26.01;40.09;101828.50;5022485;28;20051;-88
2021/06/11 08:46:54;;;;;;;2.92;2.70;;;;;;;26.10;41.49;101832.06;5001895;28;20029;-85
2021/06/11 08:49:21;;;;;;;5.20;3.55;;;;;;;26.22;40.99;101842.38;5012113;28;20036;-85
2021/06/11 08:51:47;;;;;;;4.63;3.13;;;;;;;26.49;41.30;101834.53;5015836;28;20033;-85
2021/06/11 08:54:21;;;;;;;5.43;3.88;;;;;;;26.87;42.18;101832.88;5021829;28;20582;-85
2021/06/11 08:56:50;;;;;;;5.10;3.40;;;;;;;27.06;40.94;101827.78;5007814;28;20018;-85
2021/06/11 08:59:19;;;;;;;3.60;2.95;;;;;;;26.93;40.20;101834.31;5015521;28;20029;-86
2021/06/11 09:01:44;;;;;;;3.30;3.00;;;;;;;27.03;40.49;101828.47;5007941;28;20087;-83
2021/06/11 09:04:10;;;;;;;4.63;3.33;;;;;;;26.19;39.80;101830.06;5034294;28;20486;-83
2021/06/11 09:06:36;;;;;;;4.82;3.33;;;;;;;25.79;40.34;101826.78;5027184;28;20029;-82
2021/06/11 09:09:03;;;;;;;5.53;3.45;;;;;;;25.38;41.29;101833.53;5011679;28;20032;-82
2021/06/11 09:11:34;;;;;;;6.22;4.07;;;;;;;25.53;41.46;101830.31;5027260;28;20128;-81
2021/06/11 09:14:12;;;;;;;4.22;3.00;;;;;;;26.22;40.70;101828.63;5004996;28;20498;-82
2021/06/11 09:16:47;;;;;;;4.53;3.80;;;;;;;26.91;38.20;101820.88;5015031;28;20092;-82
2021/06/11 09:19:22;;;;;;;4.70;3.50;;;;;;;27.49;38.13;101821.16;5010558;28;20037;-83
2021/06/11 09:21:50;;;;;;;3.85;3.03;;;;;;;27.77;37.15;101824.97;5010935;28;20112;-82
2021/06/11 09:27:06;;;;;;;7.63;3.15;;;;;;;28.11;39.46;101814.75;5019188;28;20125;-83
2021/06/11 09:29:44;;;;;;;4.28;2.85;;;;;;;27.79;38.19;101819.94;4997907;28;20026;-82
2021/06/11 09:32:31;;;;;;;6.00;3.30;;;;;;;28.04;38.22;101815.31;5013227;28;20026;-82
2021/06/11 09:35:03;;;;;;;2.90;2.70;;;;;;;28.30;38.15;101809.53;5000982;28;20076;-83
2021/06/11 09:37:37;;;;;;;3.40;3.08;;;;;;;28.22;38.16;101815.91;5024962;28;20379;-83
2021/06/11 09:40:07;;;;;;;;;;;;;;;28.08;37.01;101815.44;5005908;28;20040;-83
2021/06/11 09:42:38;;;;;;;3.45;3.13;;;;;;;27.22;37.24;101817.81;5036772;28;19916;-83
2021/06/11 09:45:07;;;;;;;5.85;3.35;;;;;;;26.84;37.99;101808.81;5003305;28;20035;-83
2021/06/11 09:47:34;;;;;;;4.72;3.72;;;;;;;26.26;38.99;101819.41;5018604;28;20088;-83
2021/06/11 09:50:22;;;;;;;4.60;3.22;;;;;;;26.16;39.92;101814.25;5013456;28;20034;-84
2021/06/11 09:53:13;;;;;;;3.72;2.92;;;;;;;26.59;41.44;101822.38;5017390;28;20061;-84
2021/06/11 09:55:50;;;;;;;7.22;3.42;;;;;;;27.05;41.50;101815.16;5005567;28;20028;-83
2021/06/11 09:58:32;;;;;;;7.15;3.58;;;;;;;27.35;38.91;101816.75;5029720;28;20120;-87
2021/06/11 10:00:58;;;;;;;4.90;3.67;;;;;;;27.78;37.43;101818.31;5054969;28;20068;-87
2021/06/11 10:03:33;;;;;;;6.28;3.88;;;;;;;27.99;36.16;101810.00;5034713;28;20033;-88
2021/06/11 10:06:01;;;;;;;5.82;4.07;;;;;;;28.06;36.31;101803.94;5010426;28;20026;-88
2021/06/11 10:08:27;;;;;;;4.20;3.10;;;;;;;28.56;37.25;101803.69;5011436;28;20380;-88
2021/06/11 10:10:57;;;;;;;4.20;3.30;;;;;;;28.64;36.90;101800.00;5020861;28;20038;-87
2021/06/11 10:13:23;;;;;;;3.45;3.10;;;;;;;28.33;36.66;101794.25;5017693;28;20110;-87
2021/06/11 10:15:51;;;;;;;3.08;2.78;;;;;;;28.49;35.69;101808.97;5007499;28;20025;-87
2021/06/11 10:18:18;;;;;;;3.88;2.30;;;;;;;29.07;36.16;101795.81;5017214;28;20382;-88
2021/06/11 10:20:44;;;;;;;4.22;3.05;;;;;;;29.38;36.20;101790.44;5017249;28;20044;-86
2021/06/11 10:23:15;;;;;;;4.13;2.67;;;;;;;29.73;35.50;101793.44;5012019;28;20116;-87
2021/06/11 10:25:44;;;;;;;3.28;2.95;;;;;;;30.01;34.21;101795.34;5008851;28;20029;-87
2021/06/11 10:28:19;;;;;;;2.97;2.67;;;;;;;30.10;33.22;101782.19;5027667;28;20502;-87
2021/06/11 10:30:48;;;;;;;4.22;2.75;;;;;;;29.84;30.80;101790.16;5009649;28;20128;-87
2021/06/11 10:33:14;;;;;;;5.70;2.33;;;;;;;29.48;31.72;101794.72;5005626;28;20041;-87
2021/06/11 10:35:43;;;;;;;8.60;3.10;;;;;;;29.83;31.51;101789.38;5040785;28;20116;-87
2021/06/11 10:38:30;;;;;;;6.07;3.15;;;;;;;29.59;31.05;101793.03;5028951;28;20033;-87
2021/06/11 10:41:02;;;;;;;4.72;2.58;;;;;;;29.82;32.16;101779.47;5001883;28;20030;-86
2021/06/11 10:43:31;;;;;;;3.70;2.70;;;;;;;30.07;31.76;101777.38;5020153;28;20033;-87
2021/06/11 10:45:58;;;;;;;2.83;2.35;;;;;;;30.51;31.33;101778.06;5035384;28;20443;-87
2021/06/11 10:48:25;;;;;;;5.78;2.60;;;;;;;30.43;29.39;101772.72;5003697;28;20032;-87
2021/06/11 10:50:51;;;;;;;4.38;2.80;;;;;;;30.26;30.59;101769.16;5003459;28;20029;-87
2021/06/11 10:53:30;;;;;;;3.80;2.80;;;;;;;30.83;31.35;101765.00;5020081;28;20029;-87
2021/06/11 10:56:09;;;;;;;2.45;2.03;;;;;;;30.88;30.69;101767.50;5009951;28;20029;-87
2021/06/11 10:58:35;;;;;;;2.30;2.10;;;;;;;30.90;28.46;101767.94;5033167;28;20034;-86
2021/06/11 11:01:22;;;;;;;2.13;1.77;;;;;;;30.46;29.64;101766.47;5007044;28;20025;-87
2021/06/11 11:03:48;;;;;;;1.95;1.85;;;;;;;31.06;27.98;101764.28;5016080;28;20451;-87
2021/06/11 11:06:30;;;;;;;1.92;1.83;;;;;;;30.92;26.09;101767.56;5007383;28;20105;-87
2021/06/11 11:09:01;;;;;;;2.08;1.85;;;;;;;30.23;26.41;101769.88;5027454;28;20021;-87
2021/06/11 11:11:34;;;;;;;2.30;2.03;;;;;;;29.95;26.61;101775.44;5032123;28;20137;-85
2021/06/11 11:14:02;;;;;;;3.78;2.58;;;;;;;29.94;26.82;101762.00;5043374;22;20036;-87
2021/06/11 11:16:34;;;;;;;2.58;2.30;;;;;;;30.16;27.26;101769.69;5032764;28;20047;-87
2021/06/11 11:19:01;;;;;;;3.03;2.30;;;;;;;30.38;27.70;101768.28;5031398;28;20025;-87
2021/06/11 11:21:31;;;;;;;5.00;2.20;;;;;;;30.74;28.77;101766.38;5032474;28;20036;-88
2021/06/11 11:24:05;;;;;;;2.38;2.17;;;;;;;29.96;26.80;101766.00;5034301;28;20034;-88
2021/06/11 11:26:39;;;;;;;3.22;2.13;;;;;;;30.19;26.95;101765.44;5032740;28;20407;-87
2021/06/11 11:29:04;;;;;;;2.53;2.33;;;;;;;28.90;27.92;101758.28;5025157;28;20032;-86
2021/06/11 11:31:30;;;;;;;3.10;2.13;;;;;;;29.48;28.27;101750.53;5047770;28;20034;-86
2021/06/11 11:33:56;;;;;;;3.70;2.40;;;;;;;29.37;28.65;101750.19;5028652;28;20453;-88